sensor_id;sensor_type;location;lat;lon;timestamp;P1;durP1;ratioP1;P2;durP2;ratioP2
60030;SDS011;45901;47.600;9.890;2023-12-20T00:02:11;3.10;;;2.00;;
60030;SDS011;45901;47.600;9.890;2023-12-20T00:04:38;3.50;;;1.90;;
60030;SDS011;45901;47.600;9.890;2023-12-20T00:07:05;4.00;;;1.87;;
60030;SDS011;45901;47.600;9.890;2023-12-20T00:09:32;3.20;;;2.10;;
60030;SDS011;45901;47.600;9.890;2023-12-20T00:11:59;3.20;;;2.10;;
60030;SDS011;45901;47.600;9.890;2023-12-20T00:14:27;4.10;;;2.20;;
60030;SDS011;45901;47.600;9.890;2023-12-20T00:16:54;2.70;;;1.80;;
60030;SDS011;45901;47.600;9.890;2023-12-20T00:19:21;2.27;;;1.70;;
60030;SDS011;45901;47.600;9.890;2023-12-20T00:21:48;3.90;;;1.73;;
60030;SDS011;45901;47.600;9.890;2023-12-20T00:24:15;3.67;;;2.03;;
60030;SDS011;45901;47.600;9.890;2023-12-20T00:26:42;4.07;;;2.20;;
60030;SDS011;45901;47.600;9.890;2023-12-20T00:29:08;5.50;;;2.23;;
60030;SDS011;45901;47.600;9.890;2023-12-20T00:31:37;3.83;;;2.00;;
60030;SDS011;45901;47.600;9.890;2023-12-20T00:34:04;2.80;;;1.70;;
60030;SDS011;45901;47.600;9.890;2023-12-20T00:36:30;4.23;;;2.20;;
60030;SDS011;45901;47.600;9.890;2023-12-20T00:38:57;5.10;;;2.30;;
60030;SDS011;45901;47.600;9.890;2023-12-20T00:41:25;3.53;;;2.40;;
60030;SDS011;45901;47.600;9.890;2023-12-20T00:43:52;3.70;;;2.40;;
60030;SDS011;45901;47.600;9.890;2023-12-20T00:46:19;4.27;;;2.27;;
60030;SDS011;45901;47.600;9.890;2023-12-20T00:48:47;4.27;;;2.20;;
60030;SDS011;45901;47.600;9.890;2023-12-20T00:51:14;4.33;;;2.57;;
60030;SDS011;45901;47.600;9.890;2023-12-20T00:53:41;3.27;;;2.13;;
60030;SDS011;45901;47.600;9.890;2023-12-20T00:56:08;3.30;;;2.23;;
60030;SDS011;45901;47.600;9.890;2023-12-20T00:58:35;4.00;;;2.67;;
60030;SDS011;45901;47.600;9.890;2023-12-20T01:01:02;4.57;;;2.40;;
60030;SDS011;45901;47.600;9.890;2023-12-20T01:03:30;3.47;;;2.37;;
60030;SDS011;45901;47.600;9.890;2023-12-20T01:05:58;4.30;;;2.20;;
60030;SDS011;45901;47.600;9.890;2023-12-20T01:08:25;4.27;;;2.70;;
60030;SDS011;45901;47.600;9.890;2023-12-20T01:10:52;6.37;;;2.80;;
60030;SDS011;45901;47.600;9.890;2023-12-20T01:13:19;3.93;;;2.33;;
60030;SDS011;45901;47.600;9.890;2023-12-20T01:15:45;3.73;;;2.03;;
60030;SDS011;45901;47.600;9.890;2023-12-20T01:18:13;3.00;;;2.13;;
60030;SDS011;45901;47.600;9.890;2023-12-20T01:20:40;5.13;;;2.63;;
60030;SDS011;45901;47.600;9.890;2023-12-20T01:23:09;4.37;;;2.93;;
60030;SDS011;45901;47.600;9.890;2023-12-20T01:25:36;3.57;;;2.23;;
60030;SDS011;45901;47.600;9.890;2023-12-20T01:28:03;3.37;;;1.93;;
60030;SDS011;45901;47.600;9.890;2023-12-20T01:30:30;3.43;;;2.50;;
60030;SDS011;45901;47.600;9.890;2023-12-20T01:32:59;4.47;;;2.60;;
60030;SDS011;45901;47.600;9.890;2023-12-20T01:35:27;4.80;;;2.60;;
60030;SDS011;45901;47.600;9.890;2023-12-20T01:37:54;4.63;;;2.60;;
60030;SDS011;45901;47.600;9.890;2023-12-20T01:40:23;5.63;;;2.90;;
60030;SDS011;45901;47.600;9.890;2023-12-20T01:42:57;5.43;;;3.13;;
60030;SDS011;45901;47.600;9.890;2023-12-20T01:45:25;4.77;;;3.10;;
60030;SDS011;45901;47.600;9.890;2023-12-20T01:47:52;5.30;;;2.93;;
60030;SDS011;45901;47.600;9.890;2023-12-20T01:50:20;4.27;;;2.80;;
60030;SDS011;45901;47.600;9.890;2023-12-20T01:52:48;5.40;;;3.43;;
60030;SDS011;45901;47.600;9.890;2023-12-20T01:55:17;5.07;;;3.10;;
60030;SDS011;45901;47.600;9.890;2023-12-20T01:57:47;3.97;;;2.30;;
60030;SDS011;45901;47.600;9.890;2023-12-20T02:00:14;4.40;;;2.60;;
60030;SDS011;45901;47.600;9.890;2023-12-20T02:02:43;5.23;;;2.70;;
60030;SDS011;45901;47.600;9.890;2023-12-20T02:05:11;5.70;;;2.27;;
60030;SDS011;45901;47.600;9.890;2023-12-20T02:07:39;6.27;;;2.83;;
60030;SDS011;45901;47.600;9.890;2023-12-20T02:10:06;4.07;;;2.37;;
60030;SDS011;45901;47.600;9.890;2023-12-20T02:12:34;4.97;;;2.70;;
60030;SDS011;45901;47.600;9.890;2023-12-20T02:15:03;3.20;;;1.73;;
60030;SDS011;45901;47.600;9.890;2023-12-20T02:17:32;2.57;;;1.53;;
60030;SDS011;45901;47.600;9.890;2023-12-20T02:20:00;2.83;;;1.60;;
60030;SDS011;45901;47.600;9.890;2023-12-20T02:22:29;3.27;;;1.80;;
60030;SDS011;45901;47.600;9.890;2023-12-20T02:24:56;1.80;;;1.13;;
60030;SDS011;45901;47.600;9.890;2023-12-20T02:27:23;4.13;;;1.60;;
60030;SDS011;45901;47.600;9.890;2023-12-20T02:29:51;9.63;;;1.90;;
60030;SDS011;45901;47.600;9.890;2023-12-20T02:32:18;1.83;;;1.40;;
60030;SDS011;45901;47.600;9.890;2023-12-20T02:34:47;3.20;;;1.60;;
60030;SDS011;45901;47.600;9.890;2023-12-20T02:37:14;2.93;;;1.50;;
60030;SDS011;45901;47.600;9.890;2023-12-20T02:39:43;2.93;;;1.53;;
60030;SDS011;45901;47.600;9.890;2023-12-20T02:42:10;4.30;;;1.20;;
60030;SDS011;45901;47.600;9.890;2023-12-20T02:44:37;2.27;;;1.23;;
60030;SDS011;45901;47.600;9.890;2023-12-20T02:47:05;2.27;;;1.37;;
60030;SDS011;45901;47.600;9.890;2023-12-20T02:49:32;2.60;;;1.50;;
60030;SDS011;45901;47.600;9.890;2023-12-20T02:51:59;2.37;;;1.40;;
60030;SDS011;45901;47.600;9.890;2023-12-20T02:54:27;1.63;;;1.00;;
60030;SDS011;45901;47.600;9.890;2023-12-20T02:56:55;2.97;;;1.37;;
60030;SDS011;45901;47.600;9.890;2023-12-20T02:59:22;1.97;;;1.27;;
60030;SDS011;45901;47.600;9.890;2023-12-20T03:01:50;2.97;;;1.50;;
60030;SDS011;45901;47.600;9.890;2023-12-20T03:04:17;3.30;;;1.60;;
60030;SDS011;45901;47.600;9.890;2023-12-20T03:06:44;2.27;;;1.30;;
60030;SDS011;45901;47.600;9.890;2023-12-20T03:09:11;2.13;;;1.03;;
60030;SDS011;45901;47.600;9.890;2023-12-20T03:11:38;4.30;;;1.40;;
60030;SDS011;45901;47.600;9.890;2023-12-20T03:14:07;2.70;;;1.40;;
60030;SDS011;45901;47.600;9.890;2023-12-20T03:16:34;2.57;;;1.53;;
60030;SDS011;45901;47.600;9.890;2023-12-20T03:19:01;3.67;;;1.30;;
60030;SDS011;45901;47.600;9.890;2023-12-20T03:21:29;2.07;;;1.30;;
60030;SDS011;45901;47.600;9.890;2023-12-20T03:23:56;3.77;;;1.60;;
60030;SDS011;45901;47.600;9.890;2023-12-20T03:26:24;2.07;;;1.10;;
60030;SDS011;45901;47.600;9.890;2023-12-20T03:28:51;2.20;;;1.37;;
60030;SDS011;45901;47.600;9.890;2023-12-20T03:31:19;4.97;;;1.50;;
60030;SDS011;45901;47.600;9.890;2023-12-20T03:33:47;2.73;;;1.47;;
60030;SDS011;45901;47.600;9.890;2023-12-20T03:36:16;4.67;;;2.20;;
60030;SDS011;45901;47.600;9.890;2023-12-20T03:38:43;3.50;;;2.20;;
60030;SDS011;45901;47.600;9.890;2023-12-20T03:41:11;3.43;;;1.90;;
60030;SDS011;45901;47.600;9.890;2023-12-20T03:43:38;3.20;;;2.10;;
60030;SDS011;45901;47.600;9.890;2023-12-20T03:46:07;4.63;;;1.97;;
60030;SDS011;45901;47.600;9.890;2023-12-20T03:48:36;5.47;;;2.23;;
60030;SDS011;45901;47.600;9.890;2023-12-20T03:51:03;4.60;;;2.37;;
60030;SDS011;45901;47.600;9.890;2023-12-20T03:53:31;5.03;;;2.80;;
60030;SDS011;45901;47.600;9.890;2023-12-20T03:55:58;9.97;;;2.73;;
60030;SDS011;45901;47.600;9.890;2023-12-20T03:58:26;4.37;;;2.50;;
60030;SDS011;45901;47.600;9.890;2023-12-20T04:00:53;5.87;;;2.43;;
60030;SDS011;45901;47.600;9.890;2023-12-20T04:03:25;5.47;;;2.77;;
60030;SDS011;45901;47.600;9.890;2023-12-20T04:05:54;4.10;;;2.63;;
60030;SDS011;45901;47.600;9.890;2023-12-20T04:08:21;5.50;;;2.73;;
60030;SDS011;45901;47.600;9.890;2023-12-20T04:10:49;4.63;;;2.50;;
60030;SDS011;45901;47.600;9.890;2023-12-20T04:13:16;4.73;;;2.70;;
60030;SDS011;45901;47.600;9.890;2023-12-20T04:15:43;5.13;;;3.70;;
60030;SDS011;45901;47.600;9.890;2023-12-20T04:18:10;6.70;;;3.77;;
60030;SDS011;45901;47.600;9.890;2023-12-20T04:20:37;9.10;;;3.67;;
60030;SDS011;45901;47.600;9.890;2023-12-20T04:23:06;6.53;;;3.23;;
60030;SDS011;45901;47.600;9.890;2023-12-20T04:25:33;7.07;;;4.27;;
60030;SDS011;45901;47.600;9.890;2023-12-20T04:28:01;4.57;;;2.67;;
60030;SDS011;45901;47.600;9.890;2023-12-20T04:30:29;4.67;;;2.80;;
60030;SDS011;45901;47.600;9.890;2023-12-20T04:32:56;4.73;;;2.90;;
60030;SDS011;45901;47.600;9.890;2023-12-20T04:35:23;5.00;;;2.90;;
60030;SDS011;45901;47.600;9.890;2023-12-20T04:37:51;4.70;;;2.50;;
60030;SDS011;45901;47.600;9.890;2023-12-20T04:40:20;4.30;;;2.80;;
60030;SDS011;45901;47.600;9.890;2023-12-20T04:42:47;6.80;;;3.30;;
60030;SDS011;45901;47.600;9.890;2023-12-20T04:45:14;5.67;;;2.87;;
60030;SDS011;45901;47.600;9.890;2023-12-20T04:47:42;6.53;;;3.10;;
60030;SDS011;45901;47.600;9.890;2023-12-20T04:50:09;5.17;;;2.97;;
60030;SDS011;45901;47.600;9.890;2023-12-20T04:52:38;5.30;;;2.90;;
60030;SDS011;45901;47.600;9.890;2023-12-20T04:55:05;5.13;;;3.03;;
60030;SDS011;45901;47.600;9.890;2023-12-20T04:57:35;5.20;;;2.90;;
60030;SDS011;45901;47.600;9.890;2023-12-20T05:00:02;6.07;;;3.90;;
60030;SDS011;45901;47.600;9.890;2023-12-20T05:02:30;5.80;;;3.33;;
60030;SDS011;45901;47.600;9.890;2023-12-20T05:04:58;7.53;;;3.20;;
60030;SDS011;45901;47.600;9.890;2023-12-20T05:07:25;5.07;;;3.10;;
60030;SDS011;45901;47.600;9.890;2023-12-20T05:09:52;5.10;;;3.10;;
60030;SDS011;45901;47.600;9.890;2023-12-20T05:12:19;6.50;;;3.57;;
60030;SDS011;45901;47.600;9.890;2023-12-20T05:14:48;7.10;;;3.37;;
60030;SDS011;45901;47.600;9.890;2023-12-20T05:17:15;6.67;;;3.60;;
60030;SDS011;45901;47.600;9.890;2023-12-20T05:19:42;9.70;;;4.30;;
60030;SDS011;45901;47.600;9.890;2023-12-20T05:22:09;5.13;;;3.47;;
60030;SDS011;45901;47.600;9.890;2023-12-20T05:24:37;7.03;;;3.97;;
60030;SDS011;45901;47.600;9.890;2023-12-20T05:27:04;6.73;;;3.83;;
60030;SDS011;45901;47.600;9.890;2023-12-20T05:29:31;5.43;;;3.60;;
60030;SDS011;45901;47.600;9.890;2023-12-20T05:32:00;7.50;;;4.33;;
60030;SDS011;45901;47.600;9.890;2023-12-20T05:34:28;8.93;;;4.97;;
60030;SDS011;45901;47.600;9.890;2023-12-20T05:36:55;8.60;;;4.33;;
60030;SDS011;45901;47.600;9.890;2023-12-20T05:39:23;7.30;;;4.53;;
60030;SDS011;45901;47.600;9.890;2023-12-20T05:41:51;5.30;;;3.47;;
60030;SDS011;45901;47.600;9.890;2023-12-20T05:44:18;5.87;;;3.30;;
60030;SDS011;45901;47.600;9.890;2023-12-20T05:46:45;4.83;;;3.17;;
60030;SDS011;45901;47.600;9.890;2023-12-20T05:49:14;3.03;;;2.00;;
60030;SDS011;45901;47.600;9.890;2023-12-20T05:51:41;4.60;;;2.27;;
60030;SDS011;45901;47.600;9.890;2023-12-20T05:54:08;3.00;;;1.83;;
60030;SDS011;45901;47.600;9.890;2023-12-20T05:56:36;3.87;;;2.33;;
60030;SDS011;45901;47.600;9.890;2023-12-20T05:59:03;3.13;;;2.17;;
60030;SDS011;45901;47.600;9.890;2023-12-20T06:01:30;3.30;;;2.40;;
60030;SDS011;45901;47.600;9.890;2023-12-20T06:03:57;3.30;;;1.93;;
60030;SDS011;45901;47.600;9.890;2023-12-20T06:06:26;3.27;;;1.90;;
60030;SDS011;45901;47.600;9.890;2023-12-20T06:08:53;4.33;;;1.70;;
60030;SDS011;45901;47.600;9.890;2023-12-20T06:11:20;2.60;;;1.60;;
60030;SDS011;45901;47.600;9.890;2023-12-20T06:13:47;3.50;;;1.43;;
60030;SDS011;45901;47.600;9.890;2023-12-20T06:16:17;1.53;;;1.30;;
60030;SDS011;45901;47.600;9.890;2023-12-20T06:18:45;2.77;;;1.50;;
60030;SDS011;45901;47.600;9.890;2023-12-20T06:21:12;1.80;;;1.20;;
60030;SDS011;45901;47.600;9.890;2023-12-20T06:23:41;2.77;;;1.67;;
60030;SDS011;45901;47.600;9.890;2023-12-20T06:26:09;2.27;;;1.43;;
60030;SDS011;45901;47.600;9.890;2023-12-20T06:28:36;2.20;;;1.40;;
60030;SDS011;45901;47.600;9.890;2023-12-20T06:31:03;2.93;;;1.57;;
60030;SDS011;45901;47.600;9.890;2023-12-20T06:33:30;2.30;;;1.50;;
60030;SDS011;45901;47.600;9.890;2023-12-20T06:35:57;4.10;;;1.40;;
60030;SDS011;45901;47.600;9.890;2023-12-20T06:38:24;2.07;;;1.33;;
60030;SDS011;45901;47.600;9.890;2023-12-20T06:40:53;2.63;;;1.77;;
60030;SDS011;45901;47.600;9.890;2023-12-20T06:43:22;2.43;;;1.70;;
60030;SDS011;45901;47.600;9.890;2023-12-20T06:45:49;2.20;;;1.50;;
60030;SDS011;45901;47.600;9.890;2023-12-20T06:48:17;2.93;;;1.30;;
60030;SDS011;45901;47.600;9.890;2023-12-20T06:50:44;2.70;;;1.57;;
60030;SDS011;45901;47.600;9.890;2023-12-20T06:53:11;4.47;;;2.73;;
60030;SDS011;45901;47.600;9.890;2023-12-20T06:55:38;2.27;;;1.50;;
60030;SDS011;45901;47.600;9.890;2023-12-20T06:58:07;2.07;;;1.50;;
60030;SDS011;45901;47.600;9.890;2023-12-20T07:00:34;4.03;;;2.17;;
60030;SDS011;45901;47.600;9.890;2023-12-20T07:03:01;2.63;;;1.57;;
60030;SDS011;45901;47.600;9.890;2023-12-20T07:05:29;1.63;;;1.20;;
60030;SDS011;45901;47.600;9.890;2023-12-20T07:07:56;1.70;;;1.20;;
60030;SDS011;45901;47.600;9.890;2023-12-20T07:10:23;1.60;;;1.10;;
60030;SDS011;45901;47.600;9.890;2023-12-20T07:12:50;1.63;;;1.10;;
60030;SDS011;45901;47.600;9.890;2023-12-20T07:15:21;1.80;;;1.00;;
60030;SDS011;45901;47.600;9.890;2023-12-20T07:17:48;1.50;;;1.00;;
60030;SDS011;45901;47.600;9.890;2023-12-20T07:20:19;0.80;;;0.80;;
60030;SDS011;45901;47.600;9.890;2023-12-20T07:22:46;1.23;;;0.83;;
60030;SDS011;45901;47.600;9.890;2023-12-20T07:25:13;1.23;;;0.83;;
60030;SDS011;45901;47.600;9.890;2023-12-20T07:27:40;1.40;;;0.90;;
60030;SDS011;45901;47.600;9.890;2023-12-20T07:30:08;2.37;;;1.30;;
60030;SDS011;45901;47.600;9.890;2023-12-20T07:32:38;1.90;;;1.00;;
60030;SDS011;45901;47.600;9.890;2023-12-20T07:35:05;3.10;;;1.80;;
60030;SDS011;45901;47.600;9.890;2023-12-20T07:37:33;2.70;;;1.50;;
60030;SDS011;45901;47.600;9.890;2023-12-20T07:40:00;8.07;;;2.47;;
60030;SDS011;45901;47.600;9.890;2023-12-20T07:42:28;5.80;;;2.07;;
60030;SDS011;45901;47.600;9.890;2023-12-20T07:44:55;4.00;;;2.07;;
60030;SDS011;45901;47.600;9.890;2023-12-20T07:47:22;3.60;;;2.20;;
60030;SDS011;45901;47.600;9.890;2023-12-20T07:49:51;3.37;;;2.10;;
60030;SDS011;45901;47.600;9.890;2023-12-20T07:52:19;5.00;;;3.13;;
60030;SDS011;45901;47.600;9.890;2023-12-20T07:54:47;2.30;;;1.53;;
60030;SDS011;45901;47.600;9.890;2023-12-20T07:57:14;2.70;;;1.67;;
60030;SDS011;45901;47.600;9.890;2023-12-20T07:59:41;2.43;;;1.50;;
60030;SDS011;45901;47.600;9.890;2023-12-20T08:02:09;2.53;;;1.70;;
60030;SDS011;45901;47.600;9.890;2023-12-20T08:04:36;1.77;;;1.10;;
60030;SDS011;45901;47.600;9.890;2023-12-20T08:07:05;2.00;;;1.20;;
60030;SDS011;45901;47.600;9.890;2023-12-20T08:09:32;2.00;;;1.20;;
60030;SDS011;45901;47.600;9.890;2023-12-20T08:12:01;1.47;;;1.27;;
60030;SDS011;45901;47.600;9.890;2023-12-20T08:14:29;1.93;;;1.43;;
60030;SDS011;45901;47.600;9.890;2023-12-20T08:16:57;2.43;;;1.67;;
60030;SDS011;45901;47.600;9.890;2023-12-20T08:19:24;2.57;;;1.57;;
60030;SDS011;45901;47.600;9.890;2023-12-20T08:21:51;2.97;;;1.73;;
60030;SDS011;45901;47.600;9.890;2023-12-20T08:24:20;1.93;;;1.30;;
60030;SDS011;45901;47.600;9.890;2023-12-20T08:26:47;1.70;;;1.07;;
60030;SDS011;45901;47.600;9.890;2023-12-20T08:29:14;2.67;;;1.50;;
60030;SDS011;45901;47.600;9.890;2023-12-20T08:31:41;3.63;;;2.17;;
60030;SDS011;45901;47.600;9.890;2023-12-20T08:34:09;3.20;;;1.70;;
60030;SDS011;45901;47.600;9.890;2023-12-20T08:36:36;3.40;;;1.90;;
60030;SDS011;45901;47.600;9.890;2023-12-20T08:39:04;3.13;;;1.70;;
60030;SDS011;45901;47.600;9.890;2023-12-20T08:41:34;2.07;;;1.50;;
60030;SDS011;45901;47.600;9.890;2023-12-20T08:44:02;1.80;;;1.20;;
60030;SDS011;45901;47.600;9.890;2023-12-20T08:46:29;2.30;;;1.33;;
60030;SDS011;45901;47.600;9.890;2023-12-20T08:48:57;2.03;;;1.20;;
60030;SDS011;45901;47.600;9.890;2023-12-20T08:51:25;1.93;;;1.37;;
60030;SDS011;45901;47.600;9.890;2023-12-20T08:53:52;3.80;;;1.50;;
60030;SDS011;45901;47.600;9.890;2023-12-20T08:56:20;2.03;;;1.57;;
60030;SDS011;45901;47.600;9.890;2023-12-20T08:58:48;1.63;;;1.20;;
60030;SDS011;45901;47.600;9.890;2023-12-20T09:01:15;2.23;;;1.33;;
60030;SDS011;45901;47.600;9.890;2023-12-20T09:03:43;2.00;;;1.43;;
60030;SDS011;45901;47.600;9.890;2023-12-20T09:06:10;3.57;;;1.63;;
60030;SDS011;45901;47.600;9.890;2023-12-20T09:08:37;2.60;;;1.60;;
60030;SDS011;45901;47.600;9.890;2023-12-20T09:11:04;1.77;;;1.20;;
60030;SDS011;45901;47.600;9.890;2023-12-20T09:13:32;2.10;;;1.20;;
60030;SDS011;45901;47.600;9.890;2023-12-20T09:16:00;2.67;;;0.90;;
60030;SDS011;45901;47.600;9.890;2023-12-20T09:18:27;1.80;;;1.10;;
60030;SDS011;45901;47.600;9.890;2023-12-20T09:20:55;4.70;;;2.20;;
60030;SDS011;45901;47.600;9.890;2023-12-20T09:23:22;3.67;;;2.13;;
60030;SDS011;45901;47.600;9.890;2023-12-20T09:25:49;4.30;;;2.43;;
60030;SDS011;45901;47.600;9.890;2023-12-20T09:28:16;1.50;;;1.07;;
60030;SDS011;45901;47.600;9.890;2023-12-20T09:30:43;1.33;;;1.03;;
60030;SDS011;45901;47.600;9.890;2023-12-20T09:33:12;1.30;;;0.87;;
60030;SDS011;45901;47.600;9.890;2023-12-20T09:35:41;4.10;;;1.20;;
60030;SDS011;45901;47.600;9.890;2023-12-20T09:38:09;1.37;;;1.13;;
60030;SDS011;45901;47.600;9.890;2023-12-20T09:40:37;1.70;;;1.03;;
60030;SDS011;45901;47.600;9.890;2023-12-20T09:43:08;1.33;;;0.97;;
60030;SDS011;45901;47.600;9.890;2023-12-20T09:45:40;1.67;;;0.80;;
60030;SDS011;45901;47.600;9.890;2023-12-20T09:48:07;1.13;;;0.70;;
60030;SDS011;45901;47.600;9.890;2023-12-20T09:50:40;2.60;;;0.80;;
60030;SDS011;45901;47.600;9.890;2023-12-20T09:53:08;1.77;;;1.13;;
60030;SDS011;45901;47.600;9.890;2023-12-20T09:55:36;2.57;;;1.07;;
60030;SDS011;45901;47.600;9.890;2023-12-20T09:58:04;2.07;;;1.03;;
60030;SDS011;45901;47.600;9.890;2023-12-20T10:00:32;4.87;;;2.23;;
60030;SDS011;45901;47.600;9.890;2023-12-20T10:03:00;10.70;;;4.10;;
60030;SDS011;45901;47.600;9.890;2023-12-20T10:05:30;3.80;;;2.10;;
60030;SDS011;45901;47.600;9.890;2023-12-20T10:07:59;2.80;;;1.40;;
60030;SDS011;45901;47.600;9.890;2023-12-20T10:10:27;1.17;;;0.90;;
60030;SDS011;45901;47.600;9.890;2023-12-20T10:13:01;1.87;;;1.10;;
60030;SDS011;45901;47.600;9.890;2023-12-20T10:15:30;1.60;;;0.70;;
60030;SDS011;45901;47.600;9.890;2023-12-20T10:17:58;1.60;;;1.20;;
60030;SDS011;45901;47.600;9.890;2023-12-20T10:20:26;1.03;;;0.80;;
60030;SDS011;45901;47.600;9.890;2023-12-20T10:22:56;2.40;;;0.80;;
60030;SDS011;45901;47.600;9.890;2023-12-20T10:25:23;2.03;;;1.10;;
60030;SDS011;45901;47.600;9.890;2023-12-20T10:30:36;2.00;;;1.20;;
60030;SDS011;45901;47.600;9.890;2023-12-20T10:33:05;3.60;;;2.07;;
60030;SDS011;45901;47.600;9.890;2023-12-20T10:35:33;1.33;;;1.20;;
60030;SDS011;45901;47.600;9.890;2023-12-20T10:38:05;2.10;;;1.50;;
60030;SDS011;45901;47.600;9.890;2023-12-20T10:40:34;2.33;;;1.30;;
60030;SDS011;45901;47.600;9.890;2023-12-20T10:43:02;2.60;;;1.87;;
60030;SDS011;45901;47.600;9.890;2023-12-20T10:45:30;1.97;;;1.30;;
60030;SDS011;45901;47.600;9.890;2023-12-20T10:47:58;1.87;;;1.30;;
60030;SDS011;45901;47.600;9.890;2023-12-20T10:50:26;3.20;;;1.93;;
60030;SDS011;45901;47.600;9.890;2023-12-20T10:52:55;2.10;;;1.57;;
60030;SDS011;45901;47.600;9.890;2023-12-20T10:55:23;2.43;;;1.53;;
60030;SDS011;45901;47.600;9.890;2023-12-20T10:57:51;2.53;;;1.93;;
60030;SDS011;45901;47.600;9.890;2023-12-20T11:00:20;1.90;;;1.63;;
60030;SDS011;45901;47.600;9.890;2023-12-20T11:02:49;2.60;;;1.97;;
60030;SDS011;45901;47.600;9.890;2023-12-20T11:05:23;3.07;;;2.10;;
60030;SDS011;45901;47.600;9.890;2023-12-20T11:08:03;3.10;;;2.20;;
60030;SDS011;45901;47.600;9.890;2023-12-20T11:10:41;3.93;;;1.90;;
60030;SDS011;45901;47.600;9.890;2023-12-20T11:13:19;4.63;;;2.10;;
60030;SDS011;45901;47.600;9.890;2023-12-20T11:15:50;2.60;;;1.90;;
60030;SDS011;45901;47.600;9.890;2023-12-20T11:18:18;3.53;;;1.90;;
60030;SDS011;45901;47.600;9.890;2023-12-20T11:20:45;2.27;;;1.63;;
60030;SDS011;45901;47.600;9.890;2023-12-20T11:23:12;2.90;;;2.10;;
60030;SDS011;45901;47.600;9.890;2023-12-20T11:25:49;2.73;;;2.00;;
60030;SDS011;45901;47.600;9.890;2023-12-20T11:28:20;2.90;;;2.13;;
60030;SDS011;45901;47.600;9.890;2023-12-20T11:30:51;2.47;;;1.93;;
60030;SDS011;45901;47.600;9.890;2023-12-20T11:33:21;2.90;;;2.23;;
60030;SDS011;45901;47.600;9.890;2023-12-20T11:35:49;4.30;;;2.90;;
60030;SDS011;45901;47.600;9.890;2023-12-20T11:38:16;3.87;;;2.67;;
60030;SDS011;45901;47.600;9.890;2023-12-20T11:40:48;4.07;;;3.00;;
60030;SDS011;45901;47.600;9.890;2023-12-20T11:43:29;4.00;;;2.90;;
60030;SDS011;45901;47.600;9.890;2023-12-20T11:46:02;5.10;;;3.20;;
60030;SDS011;45901;47.600;9.890;2023-12-20T11:48:31;4.80;;;3.23;;
60030;SDS011;45901;47.600;9.890;2023-12-20T11:50:58;4.67;;;3.20;;
60030;SDS011;45901;47.600;9.890;2023-12-20T11:53:26;4.67;;;3.50;;
60030;SDS011;45901;47.600;9.890;2023-12-20T11:55:55;4.27;;;3.30;;
60030;SDS011;45901;47.600;9.890;2023-12-20T11:58:22;4.43;;;3.33;;
60030;SDS011;45901;47.600;9.890;2023-12-20T12:00:50;4.03;;;3.07;;
60030;SDS011;45901;47.600;9.890;2023-12-20T12:03:17;4.53;;;3.70;;
60030;SDS011;45901;47.600;9.890;2023-12-20T12:05:46;4.97;;;3.80;;
60030;SDS011;45901;47.600;9.890;2023-12-20T12:08:14;5.27;;;3.90;;
60030;SDS011;45901;47.600;9.890;2023-12-20T12:10:42;4.73;;;3.40;;
60030;SDS011;45901;47.600;9.890;2023-12-20T12:13:11;4.73;;;3.63;;
60030;SDS011;45901;47.600;9.890;2023-12-20T12:15:39;4.30;;;2.93;;
60030;SDS011;45901;47.600;9.890;2023-12-20T12:18:07;3.87;;;2.97;;
60030;SDS011;45901;47.600;9.890;2023-12-20T12:20:35;5.17;;;3.77;;
60030;SDS011;45901;47.600;9.890;2023-12-20T12:23:03;5.23;;;3.70;;
60030;SDS011;45901;47.600;9.890;2023-12-20T12:25:32;4.10;;;3.43;;
60030;SDS011;45901;47.600;9.890;2023-12-20T12:28:02;4.73;;;3.27;;
60030;SDS011;45901;47.600;9.890;2023-12-20T12:30:30;4.30;;;3.23;;
60030;SDS011;45901;47.600;9.890;2023-12-20T12:32:58;5.17;;;3.53;;
60030;SDS011;45901;47.600;9.890;2023-12-20T12:35:25;3.93;;;3.10;;
60030;SDS011;45901;47.600;9.890;2023-12-20T12:37:52;4.17;;;3.20;;
60030;SDS011;45901;47.600;9.890;2023-12-20T12:40:19;4.47;;;3.30;;
60030;SDS011;45901;47.600;9.890;2023-12-20T12:42:47;5.33;;;3.37;;
60030;SDS011;45901;47.600;9.890;2023-12-20T12:45:14;6.23;;;3.80;;
60030;SDS011;45901;47.600;9.890;2023-12-20T12:47:43;4.23;;;3.10;;
60030;SDS011;45901;47.600;9.890;2023-12-20T12:50:11;4.80;;;3.30;;
60030;SDS011;45901;47.600;9.890;2023-12-20T12:52:38;4.20;;;3.10;;
60030;SDS011;45901;47.600;9.890;2023-12-20T12:55:05;4.90;;;3.30;;
60030;SDS011;45901;47.600;9.890;2023-12-20T12:57:33;5.00;;;3.37;;
60030;SDS011;45901;47.600;9.890;2023-12-20T13:00:01;5.07;;;3.47;;
60030;SDS011;45901;47.600;9.890;2023-12-20T13:02:30;4.30;;;3.20;;
60030;SDS011;45901;47.600;9.890;2023-12-20T13:04:58;4.83;;;3.83;;
60030;SDS011;45901;47.600;9.890;2023-12-20T13:07:27;5.13;;;3.63;;
60030;SDS011;45901;47.600;9.890;2023-12-20T13:09:55;4.20;;;3.17;;
60030;SDS011;45901;47.600;9.890;2023-12-20T13:12:22;4.63;;;3.73;;
60030;SDS011;45901;47.600;9.890;2023-12-20T13:14:49;6.50;;;4.43;;
60030;SDS011;45901;47.600;9.890;2023-12-20T13:17:16;7.50;;;5.00;;
60030;SDS011;45901;47.600;9.890;2023-12-20T13:19:43;7.33;;;4.23;;
60030;SDS011;45901;47.600;9.890;2023-12-20T13:22:12;5.43;;;4.20;;
60030;SDS011;45901;47.600;9.890;2023-12-20T13:24:39;5.73;;;4.30;;
60030;SDS011;45901;47.600;9.890;2023-12-20T13:27:07;4.97;;;3.70;;
60030;SDS011;45901;47.600;9.890;2023-12-20T13:29:34;5.77;;;3.70;;
60030;SDS011;45901;47.600;9.890;2023-12-20T13:32:01;4.53;;;3.10;;
60030;SDS011;45901;47.600;9.890;2023-12-20T13:34:29;4.87;;;3.50;;
60030;SDS011;45901;47.600;9.890;2023-12-20T13:36:56;4.13;;;2.80;;
60030;SDS011;45901;47.600;9.890;2023-12-20T13:39:25;3.60;;;2.60;;
60030;SDS011;45901;47.600;9.890;2023-12-20T13:41:52;3.90;;;3.03;;
60030;SDS011;45901;47.600;9.890;2023-12-20T13:44:19;3.40;;;2.70;;
60030;SDS011;45901;47.600;9.890;2023-12-20T13:46:46;6.27;;;2.80;;
60030;SDS011;45901;47.600;9.890;2023-12-20T13:49:14;3.50;;;2.80;;
60030;SDS011;45901;47.600;9.890;2023-12-20T13:51:41;4.43;;;3.00;;
60030;SDS011;45901;47.600;9.890;2023-12-20T13:54:08;4.07;;;3.10;;
60030;SDS011;45901;47.600;9.890;2023-12-20T13:56:37;3.73;;;2.60;;
60030;SDS011;45901;47.600;9.890;2023-12-20T13:59:04;4.00;;;2.60;;
60030;SDS011;45901;47.600;9.890;2023-12-20T14:01:31;3.47;;;2.80;;
60030;SDS011;45901;47.600;9.890;2023-12-20T14:03:58;2.93;;;2.63;;
60030;SDS011;45901;47.600;9.890;2023-12-20T14:06:26;4.53;;;3.30;;
60030;SDS011;45901;47.600;9.890;2023-12-20T14:08:54;4.53;;;3.03;;
60030;SDS011;45901;47.600;9.890;2023-12-20T14:11:21;3.43;;;2.60;;
60030;SDS011;45901;47.600;9.890;2023-12-20T14:13:49;6.37;;;2.87;;
60030;SDS011;45901;47.600;9.890;2023-12-20T14:16:16;3.17;;;2.40;;
60030;SDS011;45901;47.600;9.890;2023-12-20T14:18:50;3.60;;;2.60;;
60030;SDS011;45901;47.600;9.890;2023-12-20T14:21:17;3.20;;;2.40;;
60030;SDS011;45901;47.600;9.890;2023-12-20T14:23:44;3.17;;;2.50;;
60030;SDS011;45901;47.600;9.890;2023-12-20T14:26:12;4.20;;;2.87;;
60030;SDS011;45901;47.600;9.890;2023-12-20T14:28:40;3.43;;;2.47;;
60030;SDS011;45901;47.600;9.890;2023-12-20T14:31:10;3.37;;;2.40;;
60030;SDS011;45901;47.600;9.890;2023-12-20T14:34:11;3.73;;;2.40;;
60030;SDS011;45901;47.600;9.890;2023-12-20T14:36:39;4.77;;;3.30;;
60030;SDS011;45901;47.600;9.890;2023-12-20T14:42:05;6.40;;;2.73;;
60030;SDS011;45901;47.600;9.890;2023-12-20T14:44:39;6.37;;;2.93;;
60030;SDS011;45901;47.600;9.890;2023-12-20T14:47:07;4.53;;;2.10;;
60030;SDS011;45901;47.600;9.890;2023-12-20T14:49:35;5.53;;;2.73;;
60030;SDS011;45901;47.600;9.890;2023-12-20T14:52:03;3.20;;;1.87;;
60030;SDS011;45901;47.600;9.890;2023-12-20T14:54:34;4.33;;;2.13;;
60030;SDS011;45901;47.600;9.890;2023-12-20T14:57:02;5.37;;;2.07;;
60030;SDS011;45901;47.600;9.890;2023-12-20T14:59:30;3.80;;;1.90;;